sensor_id;sensor_type;location;lat;lon;timestamp;P1;durP1;ratioP1;P2;durP2;ratioP2
41685;SDS011;27370;42.764;23.432;2022-08-03T00:01:39;3.63;;;2.33;;
41685;SDS011;27370;42.764;23.432;2022-08-03T00:04:06;4.13;;;2.42;;
41685;SDS011;27370;42.764;23.432;2022-08-03T00:06:33;4.95;;;2.92;;
41685;SDS011;27370;42.764;23.432;2022-08-03T00:08:58;6.85;;;2.70;;
41685;SDS011;27370;42.764;23.432;2022-08-03T00:11:24;4.70;;;2.67;;
41685;SDS011;27370;42.764;23.432;2022-08-03T00:13:50;5.63;;;2.88;;
41685;SDS011;27370;42.764;23.432;2022-08-03T00:16:16;4.07;;;2.72;;
41685;SDS011;27370;42.764;23.432;2022-08-03T00:18:42;4.97;;;2.80;;
41685;SDS011;27370;42.764;23.432;2022-08-03T00:21:07;6.38;;;2.95;;
41685;SDS011;27370;42.764;23.432;2022-08-03T00:23:33;4.40;;;2.53;;
41685;SDS011;27370;42.764;23.432;2022-08-03T00:25:58;5.95;;;3.20;;
41685;SDS011;27370;42.764;23.432;2022-08-03T00:28:24;4.30;;;2.88;;
41685;SDS011;27370;42.764;23.432;2022-08-03T00:30:49;4.15;;;2.70;;
41685;SDS011;27370;42.764;23.432;2022-08-03T00:33:15;5.55;;;2.95;;
41685;SDS011;27370;42.764;23.432;2022-08-03T00:35:41;5.32;;;3.00;;
41685;SDS011;27370;42.764;23.432;2022-08-03T00:38:06;7.35;;;2.72;;
41685;SDS011;27370;42.764;23.432;2022-08-03T00:40:32;5.45;;;3.10;;
41685;SDS011;27370;42.764;23.432;2022-08-03T00:42:59;4.72;;;3.00;;
41685;SDS011;27370;42.764;23.432;2022-08-03T00:45:31;6.38;;;2.90;;
41685;SDS011;27370;42.764;23.432;2022-08-03T00:47:58;4.78;;;2.72;;
41685;SDS011;27370;42.764;23.432;2022-08-03T00:50:25;6.43;;;2.92;;
41685;SDS011;27370;42.764;23.432;2022-08-03T00:52:53;5.82;;;2.70;;
41685;SDS011;27370;42.764;23.432;2022-08-03T00:55:20;4.97;;;3.10;;
41685;SDS011;27370;42.764;23.432;2022-08-03T00:57:46;5.43;;;3.00;;
41685;SDS011;27370;42.764;23.432;2022-08-03T01:00:13;8.60;;;2.95;;
41685;SDS011;27370;42.764;23.432;2022-08-03T01:02:41;5.22;;;3.15;;
41685;SDS011;27370;42.764;23.432;2022-08-03T01:05:06;4.35;;;2.85;;
41685;SDS011;27370;42.764;23.432;2022-08-03T01:16:20;5.18;;;3.10;;
41685;SDS011;27370;42.764;23.432;2022-08-03T01:19:11;7.50;;;3.00;;
41685;SDS011;27370;42.764;23.432;2022-08-03T01:21:58;5.22;;;2.60;;
41685;SDS011;27370;42.764;23.432;2022-08-03T01:27:22;6.20;;;3.10;;
41685;SDS011;27370;42.764;23.432;2022-08-03T01:29:57;5.65;;;2.95;;
41685;SDS011;27370;42.764;23.432;2022-08-03T01:32:25;3.97;;;2.60;;
41685;SDS011;27370;42.764;23.432;2022-08-03T01:35:00;5.93;;;2.90;;
41685;SDS011;27370;42.764;23.432;2022-08-03T01:40:16;5.18;;;3.00;;
41685;SDS011;27370;42.764;23.432;2022-08-03T01:42:44;6.82;;;3.42;;
41685;SDS011;27370;42.764;23.432;2022-08-03T01:45:13;6.05;;;3.10;;
41685;SDS011;27370;42.764;23.432;2022-08-03T01:47:42;6.30;;;3.08;;
41685;SDS011;27370;42.764;23.432;2022-08-03T01:50:09;8.00;;;3.60;;
41685;SDS011;27370;42.764;23.432;2022-08-03T01:52:38;7.45;;;3.13;;
41685;SDS011;27370;42.764;23.432;2022-08-03T01:55:06;7.40;;;3.35;;
41685;SDS011;27370;42.764;23.432;2022-08-03T01:57:34;5.68;;;2.92;;
41685;SDS011;27370;42.764;23.432;2022-08-03T02:00:02;6.28;;;3.10;;
41685;SDS011;27370;42.764;23.432;2022-08-03T02:02:36;5.55;;;3.17;;
41685;SDS011;27370;42.764;23.432;2022-08-03T02:05:05;6.25;;;3.15;;
41685;SDS011;27370;42.764;23.432;2022-08-03T02:07:33;5.13;;;2.70;;
41685;SDS011;27370;42.764;23.432;2022-08-03T02:09:59;6.55;;;3.13;;
41685;SDS011;27370;42.764;23.432;2022-08-03T02:12:27;6.28;;;3.08;;
41685;SDS011;27370;42.764;23.432;2022-08-03T02:14:55;5.00;;;2.85;;
41685;SDS011;27370;42.764;23.432;2022-08-03T02:17:22;5.07;;;2.80;;
41685;SDS011;27370;42.764;23.432;2022-08-03T02:19:50;8.25;;;3.00;;
41685;SDS011;27370;42.764;23.432;2022-08-03T02:22:17;6.65;;;2.75;;
41685;SDS011;27370;42.764;23.432;2022-08-03T02:24:42;12.80;;;3.60;;
41685;SDS011;27370;42.764;23.432;2022-08-03T02:27:09;6.65;;;3.20;;
41685;SDS011;27370;42.764;23.432;2022-08-03T02:29:44;5.40;;;3.22;;
41685;SDS011;27370;42.764;23.432;2022-08-03T02:32:13;6.65;;;3.30;;
41685;SDS011;27370;42.764;23.432;2022-08-03T02:34:42;7.70;;;3.30;;
41685;SDS011;27370;42.764;23.432;2022-08-03T02:37:11;5.82;;;2.90;;
41685;SDS011;27370;42.764;23.432;2022-08-03T02:39:38;6.18;;;2.92;;
41685;SDS011;27370;42.764;23.432;2022-08-03T02:42:05;5.05;;;2.80;;
41685;SDS011;27370;42.764;23.432;2022-08-03T02:44:33;5.90;;;3.20;;
41685;SDS011;27370;42.764;23.432;2022-08-03T02:47:01;8.80;;;3.38;;
41685;SDS011;27370;42.764;23.432;2022-08-03T02:49:31;9.13;;;3.83;;
41685;SDS011;27370;42.764;23.432;2022-08-03T02:51:58;6.20;;;3.05;;
41685;SDS011;27370;42.764;23.432;2022-08-03T02:54:25;8.10;;;3.35;;
41685;SDS011;27370;42.764;23.432;2022-08-03T02:56:53;6.70;;;3.55;;
41685;SDS011;27370;42.764;23.432;2022-08-03T02:59:21;4.95;;;3.05;;
41685;SDS011;27370;42.764;23.432;2022-08-03T03:01:47;6.25;;;2.90;;
41685;SDS011;27370;42.764;23.432;2022-08-03T03:04:13;5.35;;;3.00;;
41685;SDS011;27370;42.764;23.432;2022-08-03T03:06:40;8.55;;;3.95;;
41685;SDS011;27370;42.764;23.432;2022-08-03T03:09:06;9.88;;;4.35;;
41685;SDS011;27370;42.764;23.432;2022-08-03T03:11:32;16.17;;;4.93;;
41685;SDS011;27370;42.764;23.432;2022-08-03T03:14:02;10.63;;;4.20;;
41685;SDS011;27370;42.764;23.432;2022-08-03T03:16:28;6.72;;;3.40;;
41685;SDS011;27370;42.764;23.432;2022-08-03T03:18:55;7.50;;;3.33;;
41685;SDS011;27370;42.764;23.432;2022-08-03T03:21:22;8.50;;;3.95;;
41685;SDS011;27370;42.764;23.432;2022-08-03T03:23:50;8.23;;;3.38;;
41685;SDS011;27370;42.764;23.432;2022-08-03T03:26:16;8.05;;;3.72;;
41685;SDS011;27370;42.764;23.432;2022-08-03T03:28:42;11.38;;;4.20;;
41685;SDS011;27370;42.764;23.432;2022-08-03T03:31:09;12.00;;;4.03;;
41685;SDS011;27370;42.764;23.432;2022-08-03T03:33:35;12.18;;;4.70;;
41685;SDS011;27370;42.764;23.432;2022-08-03T03:36:02;11.88;;;4.88;;
41685;SDS011;27370;42.764;23.432;2022-08-03T03:38:29;13.32;;;4.90;;
41685;SDS011;27370;42.764;23.432;2022-08-03T03:40:54;10.77;;;4.65;;
41685;SDS011;27370;42.764;23.432;2022-08-03T03:43:21;15.10;;;4.28;;
41685;SDS011;27370;42.764;23.432;2022-08-03T03:45:47;11.75;;;4.15;;
41685;SDS011;27370;42.764;23.432;2022-08-03T03:48:13;10.77;;;3.97;;
41685;SDS011;27370;42.764;23.432;2022-08-03T03:50:39;9.18;;;3.88;;
41685;SDS011;27370;42.764;23.432;2022-08-03T03:53:07;9.43;;;4.28;;
41685;SDS011;27370;42.764;23.432;2022-08-03T03:55:34;11.43;;;4.07;;
41685;SDS011;27370;42.764;23.432;2022-08-03T03:58:00;10.13;;;3.80;;
41685;SDS011;27370;42.764;23.432;2022-08-03T04:00:25;10.73;;;4.40;;
41685;SDS011;27370;42.764;23.432;2022-08-03T04:02:51;13.85;;;5.03;;
41685;SDS011;27370;42.764;23.432;2022-08-03T04:05:16;14.18;;;5.78;;
41685;SDS011;27370;42.764;23.432;2022-08-03T04:08:09;12.30;;;5.32;;
41685;SDS011;27370;42.764;23.432;2022-08-03T04:13:36;9.65;;;3.72;;
41685;SDS011;27370;42.764;23.432;2022-08-03T04:16:05;5.63;;;3.10;;
41685;SDS011;27370;42.764;23.432;2022-08-03T04:18:34;8.23;;;3.50;;
41685;SDS011;27370;42.764;23.432;2022-08-03T04:21:03;5.93;;;3.00;;
41685;SDS011;27370;42.764;23.432;2022-08-03T04:23:33;5.60;;;3.10;;
41685;SDS011;27370;42.764;23.432;2022-08-03T04:26:02;6.38;;;3.45;;
41685;SDS011;27370;42.764;23.432;2022-08-03T04:28:33;6.28;;;3.60;;
41685;SDS011;27370;42.764;23.432;2022-08-03T04:31:02;8.23;;;3.58;;
41685;SDS011;27370;42.764;23.432;2022-08-03T04:33:30;8.23;;;3.88;;
41685;SDS011;27370;42.764;23.432;2022-08-03T04:35:57;7.35;;;3.70;;
41685;SDS011;27370;42.764;23.432;2022-08-03T04:38:25;8.23;;;3.47;;
41685;SDS011;27370;42.764;23.432;2022-08-03T04:40:53;6.07;;;3.75;;
41685;SDS011;27370;42.764;23.432;2022-08-03T04:43:20;6.10;;;3.50;;
41685;SDS011;27370;42.764;23.432;2022-08-03T04:45:47;7.18;;;3.22;;
41685;SDS011;27370;42.764;23.432;2022-08-03T04:48:14;14.02;;;5.72;;
41685;SDS011;27370;42.764;23.432;2022-08-03T04:50:40;8.93;;;4.18;;
41685;SDS011;27370;42.764;23.432;2022-08-03T04:53:07;11.80;;;4.70;;
41685;SDS011;27370;42.764;23.432;2022-08-03T04:55:33;11.27;;;4.75;;
41685;SDS011;27370;42.764;23.432;2022-08-03T04:58:00;13.27;;;4.30;;
41685;SDS011;27370;42.764;23.432;2022-08-03T05:00:27;8.10;;;3.60;;
41685;SDS011;27370;42.764;23.432;2022-08-03T05:02:53;7.72;;;3.08;;
41685;SDS011;27370;42.764;23.432;2022-08-03T05:05:19;7.43;;;3.20;;
41685;SDS011;27370;42.764;23.432;2022-08-03T05:07:45;8.80;;;3.55;;
41685;SDS011;27370;42.764;23.432;2022-08-03T05:10:11;8.07;;;3.40;;
41685;SDS011;27370;42.764;23.432;2022-08-03T05:12:38;10.90;;;4.30;;
41685;SDS011;27370;42.764;23.432;2022-08-03T05:15:04;11.32;;;4.65;;
41685;SDS011;27370;42.764;23.432;2022-08-03T05:17:30;10.18;;;3.83;;
41685;SDS011;27370;42.764;23.432;2022-08-03T05:19:58;7.45;;;3.47;;
41685;SDS011;27370;42.764;23.432;2022-08-03T05:22:24;6.70;;;3.30;;
41685;SDS011;27370;42.764;23.432;2022-08-03T05:24:49;7.97;;;3.55;;
41685;SDS011;27370;42.764;23.432;2022-08-03T05:27:15;6.38;;;3.60;;
41685;SDS011;27370;42.764;23.432;2022-08-03T05:29:47;6.82;;;3.20;;
41685;SDS011;27370;42.764;23.432;2022-08-03T05:32:15;7.63;;;3.45;;
41685;SDS011;27370;42.764;23.432;2022-08-03T05:34:41;7.50;;;3.20;;
41685;SDS011;27370;42.764;23.432;2022-08-03T05:37:07;6.45;;;3.40;;
41685;SDS011;27370;42.764;23.432;2022-08-03T05:39:33;6.28;;;3.17;;
41685;SDS011;27370;42.764;23.432;2022-08-03T05:41:59;8.10;;;3.65;;
41685;SDS011;27370;42.764;23.432;2022-08-03T05:44:25;8.93;;;3.85;;
41685;SDS011;27370;42.764;23.432;2022-08-03T05:46:51;7.07;;;3.58;;
41685;SDS011;27370;42.764;23.432;2022-08-03T05:49:17;7.68;;;3.70;;
41685;SDS011;27370;42.764;23.432;2022-08-03T05:51:43;6.70;;;3.90;;
41685;SDS011;27370;42.764;23.432;2022-08-03T05:54:08;6.97;;;3.63;;
41685;SDS011;27370;42.764;23.432;2022-08-03T05:56:34;9.75;;;3.90;;
41685;SDS011;27370;42.764;23.432;2022-08-03T05:58:59;9.38;;;4.05;;
41685;SDS011;27370;42.764;23.432;2022-08-03T06:01:25;10.93;;;3.70;;
41685;SDS011;27370;42.764;23.432;2022-08-03T06:03:50;5.50;;;3.28;;
41685;SDS011;27370;42.764;23.432;2022-08-03T06:06:16;6.35;;;2.90;;
41685;SDS011;27370;42.764;23.432;2022-08-03T06:08:43;7.85;;;3.30;;
41685;SDS011;27370;42.764;23.432;2022-08-03T06:11:09;11.95;;;3.30;;
41685;SDS011;27370;42.764;23.432;2022-08-03T06:13:35;5.40;;;3.08;;
41685;SDS011;27370;42.764;23.432;2022-08-03T06:16:01;6.78;;;3.25;;
41685;SDS011;27370;42.764;23.432;2022-08-03T06:18:26;7.65;;;3.13;;
41685;SDS011;27370;42.764;23.432;2022-08-03T06:20:52;8.77;;;3.20;;
41685;SDS011;27370;42.764;23.432;2022-08-03T06:23:18;5.22;;;2.85;;
41685;SDS011;27370;42.764;23.432;2022-08-03T06:25:44;7.85;;;3.17;;
41685;SDS011;27370;42.764;23.432;2022-08-03T06:28:10;6.25;;;2.80;;
41685;SDS011;27370;42.764;23.432;2022-08-03T06:30:38;9.48;;;2.90;;
41685;SDS011;27370;42.764;23.432;2022-08-03T06:33:04;5.53;;;2.33;;
41685;SDS011;27370;42.764;23.432;2022-08-03T06:35:29;6.95;;;3.10;;
41685;SDS011;27370;42.764;23.432;2022-08-03T06:37:55;7.20;;;2.83;;
41685;SDS011;27370;42.764;23.432;2022-08-03T06:40:21;9.95;;;5.25;;
41685;SDS011;27370;42.764;23.432;2022-08-03T06:42:56;6.10;;;3.25;;
41685;SDS011;27370;42.764;23.432;2022-08-03T06:45:23;9.85;;;2.80;;
41685;SDS011;27370;42.764;23.432;2022-08-03T06:48:02;8.40;;;3.55;;
41685;SDS011;27370;42.764;23.432;2022-08-03T06:50:30;6.50;;;3.08;;
41685;SDS011;27370;42.764;23.432;2022-08-03T06:52:56;5.65;;;2.97;;
41685;SDS011;27370;42.764;23.432;2022-08-03T06:55:22;4.03;;;2.40;;
41685;SDS011;27370;42.764;23.432;2022-08-03T06:57:47;5.65;;;2.70;;
41685;SDS011;27370;42.764;23.432;2022-08-03T07:00:13;4.97;;;2.70;;
41685;SDS011;27370;42.764;23.432;2022-08-03T07:02:39;7.75;;;2.70;;
41685;SDS011;27370;42.764;23.432;2022-08-03T07:05:05;5.78;;;3.00;;
41685;SDS011;27370;42.764;23.432;2022-08-03T07:07:32;5.93;;;2.55;;
41685;SDS011;27370;42.764;23.432;2022-08-03T07:09:57;7.05;;;2.80;;
41685;SDS011;27370;42.764;23.432;2022-08-03T07:12:23;5.15;;;2.47;;
41685;SDS011;27370;42.764;23.432;2022-08-03T07:14:50;10.13;;;2.42;;
41685;SDS011;27370;42.764;23.432;2022-08-03T07:17:15;5.00;;;2.22;;
41685;SDS011;27370;42.764;23.432;2022-08-03T07:19:41;6.72;;;2.40;;
41685;SDS011;27370;42.764;23.432;2022-08-03T07:22:07;6.38;;;2.60;;
41685;SDS011;27370;42.764;23.432;2022-08-03T07:24:33;3.85;;;2.30;;
41685;SDS011;27370;42.764;23.432;2022-08-03T07:26:58;5.50;;;2.40;;
41685;SDS011;27370;42.764;23.432;2022-08-03T07:29:24;4.72;;;2.15;;
41685;SDS011;27370;42.764;23.432;2022-08-03T07:31:49;4.53;;;2.20;;
41685;SDS011;27370;42.764;23.432;2022-08-03T07:34:15;3.67;;;1.98;;
41685;SDS011;27370;42.764;23.432;2022-08-03T07:36:41;4.10;;;2.20;;
41685;SDS011;27370;42.764;23.432;2022-08-03T07:39:06;5.15;;;2.00;;
41685;SDS011;27370;42.764;23.432;2022-08-03T07:41:32;7.10;;;2.13;;
41685;SDS011;27370;42.764;23.432;2022-08-03T07:43:57;4.45;;;2.40;;
41685;SDS011;27370;42.764;23.432;2022-08-03T07:46:23;4.28;;;2.10;;
41685;SDS011;27370;42.764;23.432;2022-08-03T07:48:48;5.25;;;1.92;;
41685;SDS011;27370;42.764;23.432;2022-08-03T07:51:14;3.00;;;1.90;;
41685;SDS011;27370;42.764;23.432;2022-08-03T07:53:39;3.72;;;2.10;;
41685;SDS011;27370;42.764;23.432;2022-08-03T07:56:05;4.82;;;1.80;;
41685;SDS011;27370;42.764;23.432;2022-08-03T07:58:30;3.50;;;1.83;;
41685;SDS011;27370;42.764;23.432;2022-08-03T08:00:56;8.98;;;2.17;;
41685;SDS011;27370;42.764;23.432;2022-08-03T08:03:21;4.35;;;2.00;;
41685;SDS011;27370;42.764;23.432;2022-08-03T08:05:47;6.40;;;2.03;;
41685;SDS011;27370;42.764;23.432;2022-08-03T08:08:13;3.78;;;1.80;;
41685;SDS011;27370;42.764;23.432;2022-08-03T08:10:38;4.88;;;2.00;;
41685;SDS011;27370;42.764;23.432;2022-08-03T08:13:04;6.32;;;2.20;;
41685;SDS011;27370;42.764;23.432;2022-08-03T08:15:29;7.22;;;2.25;;
41685;SDS011;27370;42.764;23.432;2022-08-03T08:17:58;6.25;;;2.30;;
41685;SDS011;27370;42.764;23.432;2022-08-03T08:20:26;6.75;;;2.33;;
41685;SDS011;27370;42.764;23.432;2022-08-03T08:22:57;6.35;;;2.10;;
41685;SDS011;27370;42.764;23.432;2022-08-03T08:25:27;3.47;;;1.90;;
41685;SDS011;27370;42.764;23.432;2022-08-03T08:27:54;2.58;;;2.00;;
41685;SDS011;27370;42.764;23.432;2022-08-03T08:30:20;4.47;;;1.95;;
41685;SDS011;27370;42.764;23.432;2022-08-03T08:32:47;5.57;;;2.20;;
41685;SDS011;27370;42.764;23.432;2022-08-03T08:35:13;3.80;;;1.73;;
41685;SDS011;27370;42.764;23.432;2022-08-03T08:37:39;5.32;;;2.00;;
41685;SDS011;27370;42.764;23.432;2022-08-03T08:40:05;4.82;;;1.92;;
41685;SDS011;27370;42.764;23.432;2022-08-03T08:42:32;3.00;;;1.70;;
41685;SDS011;27370;42.764;23.432;2022-08-03T08:44:58;4.30;;;1.67;;
41685;SDS011;27370;42.764;23.432;2022-08-03T08:47:25;4.22;;;1.60;;
41685;SDS011;27370;42.764;23.432;2022-08-03T08:49:54;4.05;;;1.60;;
41685;SDS011;27370;42.764;23.432;2022-08-03T08:52:28;5.43;;;1.60;;
41685;SDS011;27370;42.764;23.432;2022-08-03T08:54:55;5.45;;;2.25;;
41685;SDS011;27370;42.764;23.432;2022-08-03T08:57:25;8.35;;;2.00;;
41685;SDS011;27370;42.764;23.432;2022-08-03T08:59:54;2.78;;;1.75;;
41685;SDS011;27370;42.764;23.432;2022-08-03T09:02:24;4.28;;;1.80;;
41685;SDS011;27370;42.764;23.432;2022-08-03T09:04:53;7.50;;;2.05;;
41685;SDS011;27370;42.764;23.432;2022-08-03T09:07:19;3.30;;;1.80;;
41685;SDS011;27370;42.764;23.432;2022-08-03T09:09:44;3.15;;;1.90;;
41685;SDS011;27370;42.764;23.432;2022-08-03T09:12:10;4.43;;;1.80;;
41685;SDS011;27370;42.764;23.432;2022-08-03T09:14:35;4.03;;;1.90;;
41685;SDS011;27370;42.764;23.432;2022-08-03T09:17:01;2.90;;;1.90;;
41685;SDS011;27370;42.764;23.432;2022-08-03T09:19:29;2.70;;;1.70;;
41685;SDS011;27370;42.764;23.432;2022-08-03T09:22:08;3.65;;;1.73;;
41685;SDS011;27370;42.764;23.432;2022-08-03T09:24:54;2.17;;;1.52;;
41685;SDS011;27370;42.764;23.432;2022-08-03T09:27:24;2.33;;;1.80;;
41685;SDS011;27370;42.764;23.432;2022-08-03T09:29:50;3.88;;;1.77;;
41685;SDS011;27370;42.764;23.432;2022-08-03T09:32:20;4.70;;;1.80;;
41685;SDS011;27370;42.764;23.432;2022-08-03T09:34:50;3.10;;;1.83;;
41685;SDS011;27370;42.764;23.432;2022-08-03T09:37:17;5.50;;;1.67;;
41685;SDS011;27370;42.764;23.432;2022-08-03T09:39:44;2.15;;;1.60;;
41685;SDS011;27370;42.764;23.432;2022-08-03T09:42:14;3.25;;;1.65;;
41685;SDS011;27370;42.764;23.432;2022-08-03T09:44:42;4.05;;;1.83;;
41685;SDS011;27370;42.764;23.432;2022-08-03T09:47:12;3.45;;;1.80;;
41685;SDS011;27370;42.764;23.432;2022-08-03T09:49:40;2.17;;;1.57;;
41685;SDS011;27370;42.764;23.432;2022-08-03T09:52:14;3.25;;;1.92;;
41685;SDS011;27370;42.764;23.432;2022-08-03T09:54:42;3.53;;;1.83;;
41685;SDS011;27370;42.764;23.432;2022-08-03T09:57:21;3.70;;;2.08;;
41685;SDS011;27370;42.764;23.432;2022-08-03T09:59:48;4.45;;;2.08;;
41685;SDS011;27370;42.764;23.432;2022-08-03T10:02:22;7.38;;;1.90;;
41685;SDS011;27370;42.764;23.432;2022-08-03T10:04:50;8.10;;;2.55;;
41685;SDS011;27370;42.764;23.432;2022-08-03T10:07:18;6.78;;;1.90;;
41685;SDS011;27370;42.764;23.432;2022-08-03T10:12:20;4.57;;;2.08;;
41685;SDS011;27370;42.764;23.432;2022-08-03T10:14:46;3.65;;;1.67;;
41685;SDS011;27370;42.764;23.432;2022-08-03T10:17:11;2.50;;;1.92;;
41685;SDS011;27370;42.764;23.432;2022-08-03T10:19:37;3.50;;;1.77;;
41685;SDS011;27370;42.764;23.432;2022-08-03T10:22:05;5.38;;;1.90;;
41685;SDS011;27370;42.764;23.432;2022-08-03T10:24:34;4.07;;;1.70;;
41685;SDS011;27370;42.764;23.432;2022-08-03T10:27:02;4.25;;;1.77;;
41685;SDS011;27370;42.764;23.432;2022-08-03T10:29:37;4.22;;;1.77;;
41685;SDS011;27370;42.764;23.432;2022-08-03T10:32:08;1.60;;;1.50;;
41685;SDS011;27370;42.764;23.432;2022-08-03T10:34:39;2.75;;;1.50;;
41685;SDS011;27370;42.764;23.432;2022-08-03T10:37:08;1.75;;;1.60;;
41685;SDS011;27370;42.764;23.432;2022-08-03T10:39:36;3.88;;;1.80;;
41685;SDS011;27370;42.764;23.432;2022-08-03T10:42:18;4.00;;;1.77;;
41685;SDS011;27370;42.764;23.432;2022-08-03T10:44:59;2.63;;;1.60;;
41685;SDS011;27370;42.764;23.432;2022-08-03T10:47:29;1.67;;;1.42;;
41685;SDS011;27370;42.764;23.432;2022-08-03T10:49:55;4.68;;;1.90;;
41685;SDS011;27370;42.764;23.432;2022-08-03T10:52:22;2.53;;;1.60;;
41685;SDS011;27370;42.764;23.432;2022-08-03T10:54:47;5.45;;;1.92;;
41685;SDS011;27370;42.764;23.432;2022-08-03T11:01:13;3.08;;;1.67;;
41685;SDS011;27370;42.764;23.432;2022-08-03T11:06:18;2.50;;;1.63;;
41685;SDS011;27370;42.764;23.432;2022-08-03T11:08:45;6.72;;;1.80;;
41685;SDS011;27370;42.764;23.432;2022-08-03T11:16:33;6.68;;;1.92;;
41685;SDS011;27370;42.764;23.432;2022-08-03T11:19:09;3.85;;;2.00;;
41685;SDS011;27370;42.764;23.432;2022-08-03T11:43:05;6.85;;;2.60;;
41685;SDS011;27370;42.764;23.432;2022-08-03T11:45:32;3.35;;;1.77;;
41685;SDS011;27370;42.764;23.432;2022-08-03T11:47:58;4.03;;;1.70;;
41685;SDS011;27370;42.764;23.432;2022-08-03T11:50:36;3.63;;;1.57;;
41685;SDS011;27370;42.764;23.432;2022-08-03T11:53:02;4.35;;;1.80;;
41685;SDS011;27370;42.764;23.432;2022-08-03T11:55:29;7.50;;;3.38;;
41685;SDS011;27370;42.764;23.432;2022-08-03T11:57:57;3.95;;;1.90;;
41685;SDS011;27370;42.764;23.432;2022-08-03T12:00:30;4.60;;;1.80;;
41685;SDS011;27370;42.764;23.432;2022-08-03T12:03:00;3.70;;;1.60;;
41685;SDS011;27370;42.764;23.432;2022-08-03T12:08:06;5.32;;;2.50;;
41685;SDS011;27370;42.764;23.432;2022-08-03T12:10:33;1.92;;;1.60;;
41685;SDS011;27370;42.764;23.432;2022-08-03T12:13:00;3.88;;;1.83;;
41685;SDS011;27370;42.764;23.432;2022-08-03T12:15:27;2.65;;;1.60;;
41685;SDS011;27370;42.764;23.432;2022-08-03T12:17:54;4.53;;;2.10;;
41685;SDS011;27370;42.764;23.432;2022-08-03T12:20:25;3.63;;;1.77;;
41685;SDS011;27370;42.764;23.432;2022-08-03T12:22:53;2.88;;;1.80;;
41685;SDS011;27370;42.764;23.432;2022-08-03T12:25:19;2.83;;;1.40;;
41685;SDS011;27370;42.764;23.432;2022-08-03T12:27:50;5.18;;;1.60;;
41685;SDS011;27370;42.764;23.432;2022-08-03T12:30:17;2.80;;;1.70;;
41685;SDS011;27370;42.764;23.432;2022-08-03T12:32:43;2.72;;;1.70;;
41685;SDS011;27370;42.764;23.432;2022-08-03T12:35:09;3.55;;;1.75;;
41685;SDS011;27370;42.764;23.432;2022-08-03T12:37:34;2.85;;;1.70;;
41685;SDS011;27370;42.764;23.432;2022-08-03T12:40:01;2.65;;;1.70;;
41685;SDS011;27370;42.764;23.432;2022-08-03T12:44:55;2.88;;;1.48;;
41685;SDS011;27370;42.764;23.432;2022-08-03T12:47:21;3.13;;;1.70;;
41685;SDS011;27370;42.764;23.432;2022-08-03T12:49:47;3.05;;;1.98;;
41685;SDS011;27370;42.764;23.432;2022-08-03T12:52:13;3.42;;;1.88;;
41685;SDS011;27370;42.764;23.432;2022-08-03T12:54:40;2.92;;;1.70;;
41685;SDS011;27370;42.764;23.432;2022-08-03T12:57:11;2.67;;;1.70;;
41685;SDS011;27370;42.764;23.432;2022-08-03T12:59:38;5.22;;;2.33;;
41685;SDS011;27370;42.764;23.432;2022-08-03T13:02:18;3.72;;;1.70;;
41685;SDS011;27370;42.764;23.432;2022-08-03T13:04:46;4.75;;;2.38;;
41685;SDS011;27370;42.764;23.432;2022-08-03T13:07:15;3.75;;;2.05;;
41685;SDS011;27370;42.764;23.432;2022-08-03T13:09:46;7.32;;;2.85;;
41685;SDS011;27370;42.764;23.432;2022-08-03T13:14:40;10.05;;;3.88;;
41685;SDS011;27370;42.764;23.432;2022-08-03T13:17:06;7.35;;;2.72;;
41685;SDS011;27370;42.764;23.432;2022-08-03T13:19:33;11.60;;;4.07;;
41685;SDS011;27370;42.764;23.432;2022-08-03T13:24:41;4.60;;;1.90;;
41685;SDS011;27370;42.764;23.432;2022-08-03T13:27:08;2.80;;;1.85;;
41685;SDS011;27370;42.764;23.432;2022-08-03T13:29:34;3.00;;;1.60;;
41685;SDS011;27370;42.764;23.432;2022-08-03T13:32:00;3.50;;;1.75;;
41685;SDS011;27370;42.764;23.432;2022-08-03T13:34:26;3.83;;;1.90;;
41685;SDS011;27370;42.764;23.432;2022-08-03T13:36:51;7.88;;;3.22;;
41685;SDS011;27370;42.764;23.432;2022-08-03T13:39:17;4.47;;;2.20;;
41685;SDS011;27370;42.764;23.432;2022-08-03T13:41:44;4.32;;;1.85;;
41685;SDS011;27370;42.764;23.432;2022-08-03T13:44:10;4.45;;;1.80;;
41685;SDS011;27370;42.764;23.432;2022-08-03T13:46:35;3.35;;;1.75;;
41685;SDS011;27370;42.764;23.432;2022-08-03T13:49:01;3.15;;;1.60;;
41685;SDS011;27370;42.764;23.432;2022-08-03T13:51:26;2.85;;;1.70;;
41685;SDS011;27370;42.764;23.432;2022-08-03T13:53:52;5.13;;;1.67;;
41685;SDS011;27370;42.764;23.432;2022-08-03T13:56:17;2.33;;;1.60;;
41685;SDS011;27370;42.764;23.432;2022-08-03T13:58:43;4.78;;;1.70;;
41685;SDS011;27370;42.764;23.432;2022-08-03T14:01:08;4.50;;;1.70;;
41685;SDS011;27370;42.764;23.432;2022-08-03T14:03:34;3.30;;;1.90;;
41685;SDS011;27370;42.764;23.432;2022-08-03T14:06:00;2.58;;;2.00;;
41685;SDS011;27370;42.764;23.432;2022-08-03T14:08:25;6.63;;;2.10;;
41685;SDS011;27370;42.764;23.432;2022-08-03T14:10:50;4.55;;;1.83;;
41685;SDS011;27370;42.764;23.432;2022-08-03T14:13:16;3.90;;;2.28;;
41685;SDS011;27370;42.764;23.432;2022-08-03T14:15:41;3.70;;;2.20;;
41685;SDS011;27370;42.764;23.432;2022-08-03T14:18:07;4.82;;;2.20;;
41685;SDS011;27370;42.764;23.432;2022-08-03T14:20:34;3.85;;;2.05;;
41685;SDS011;27370;42.764;23.432;2022-08-03T14:23:00;3.65;;;2.17;;
41685;SDS011;27370;42.764;23.432;2022-08-03T14:25:26;4.68;;;2.28;;
41685;SDS011;27370;42.764;23.432;2022-08-03T14:27:52;3.25;;;2.00;;
41685;SDS011;27370;42.764;23.432;2022-08-03T14:30:17;5.88;;;2.10;;
41685;SDS011;27370;42.764;23.432;2022-08-03T14:32:43;4.70;;;2.13;;
41685;SDS011;27370;42.764;23.432;2022-08-03T14:35:09;4.68;;;2.28;;
41685;SDS011;27370;42.764;23.432;2022-08-03T14:37:34;6.70;;;2.15;;
41685;SDS011;27370;42.764;23.432;2022-08-03T14:40:00;13.90;;;3.58;;
41685;SDS011;27370;42.764;23.432;2022-08-03T14:42:25;12.18;;;3.30;;
41685;SDS011;27370;42.764;23.432;2022-08-03T14:44:51;10.23;;;3.17;;
41685;SDS011;27370;42.764;23.432;2022-08-03T14:47:16;5.13;;;2.22;;
41685;SDS011;27370;42.764;23.432;2022-08-03T14:49:42;5.60;;;2.28;;
41685;SDS011;27370;42.764;23.432;2022-08-03T14:52:07;6.13;;;2.20;;
41685;SDS011;27370;42.764;23.432;2022-08-03T14:54:33;3.83;;;2.03;;
41685;SDS011;27370;42.764;23.432;2022-08-03T14:56:59;4.13;;;2.28;;
41685;SDS011;27370;42.764;23.432;2022-08-03T14:59:25;6.50;;;2.30;;
41685;SDS011;27370;42.764;23.432;2022-08-03T15:01:51;5.40;;;2.35;;
41685;SDS011;27370;42.764;23.432;2022-08-03T15:04:17;5.43;;;2.15;;
41685;SDS011;27370;42.764;23.432;2022-08-03T15:06:42;6.47;;;2.40;;
41685;SDS011;27370;42.764;23.432;2022-08-03T15:09:08;6.40;;;2.63;;
41685;SDS011;27370;42.764;23.432;2022-08-03T15:11:33;7.85;;;2.83;;
41685;SDS011;27370;42.764;23.432;2022-08-03T15:13:59;10.05;;;3.08;;
41685;SDS011;27370;42.764;23.432;2022-08-03T15:16:24;11.32;;;3.60;;
41685;SDS011;27370;42.764;23.432;2022-08-03T15:18:50;15.13;;;3.92;;
41685;SDS011;27370;42.764;23.432;2022-08-03T15:21:15;11.43;;;4.13;;
41685;SDS011;27370;42.764;23.432;2022-08-03T15:23:41;10.10;;;4.25;;
41685;SDS011;27370;42.764;23.432;2022-08-03T15:26:06;8.77;;;4.18;;
41685;SDS011;27370;42.764;23.432;2022-08-03T15:28:32;9.45;;;3.78;;
41685;SDS011;27370;42.764;23.432;2022-08-03T15:30:58;8.38;;;4.10;;
41685;SDS011;27370;42.764;23.432;2022-08-03T15:33:23;6.43;;;3.60;;
41685;SDS011;27370;42.764;23.432;2022-08-03T15:35:49;10.20;;;4.25;;
41685;SDS011;27370;42.764;23.432;2022-08-03T15:38:14;8.82;;;4.40;;